createdAt,value
2024-01-25T00:00:48.868Z,6.22
2024-01-25T00:03:15.950Z,8.02
2024-01-25T00:05:44.395Z,7.00
2024-01-25T00:08:11.751Z,8.15
2024-01-25T00:10:38.806Z,8.63
2024-01-25T00:13:05.829Z,7.57
2024-01-25T00:15:32.907Z,6.93
2024-01-25T00:18:00.067Z,6.97
2024-01-25T00:20:27.143Z,7.22
2024-01-25T00:22:54.181Z,6.95
2024-01-25T00:25:21.341Z,6.50
2024-01-25T00:27:48.523Z,6.28
2024-01-25T00:30:15.866Z,5.65
2024-01-25T00:32:44.017Z,6.00
2024-01-25T00:35:14.551Z,6.47
2024-01-25T00:37:42.626Z,6.65
2024-01-25T00:40:10.587Z,5.32
2024-01-25T00:42:44.514Z,5.78
2024-01-25T00:45:12.902Z,6.95
2024-01-25T00:47:40.402Z,5.97
2024-01-25T00:50:08.341Z,5.05
2024-01-25T00:52:36.730Z,5.63
2024-01-25T00:55:04.799Z,6.28
2024-01-25T00:57:32.520Z,5.88
2024-01-25T01:00:01.568Z,5.10
2024-01-25T01:02:36.234Z,5.60
2024-01-25T01:05:03.758Z,5.82
2024-01-25T01:07:31.356Z,7.45
2024-01-25T01:10:01.467Z,6.18
2024-01-25T01:12:28.603Z,6.80
2024-01-25T01:14:55.566Z,6.75
2024-01-25T01:17:22.908Z,6.80
2024-01-25T01:19:50.207Z,7.90
2024-01-25T01:22:18.037Z,5.18
2024-01-25T01:24:45.066Z,6.30
2024-01-25T01:27:12.162Z,7.18
2024-01-25T01:29:39.276Z,7.68
2024-01-25T01:32:06.696Z,5.95
2024-01-25T01:34:34.120Z,6.47
2024-01-25T01:37:01.360Z,5.35
2024-01-25T01:39:28.506Z,6.53
2024-01-25T01:41:55.746Z,6.63
2024-01-25T01:44:22.789Z,6.63
2024-01-25T01:46:49.951Z,6.45
2024-01-25T01:49:18.152Z,5.65
2024-01-25T01:51:46.077Z,6.28
2024-01-25T01:54:13.207Z,5.22
2024-01-25T01:56:43.242Z,7.03
2024-01-25T01:59:12.470Z,7.13
2024-01-25T02:01:39.876Z,6.07
2024-01-25T02:04:07.251Z,6.45
2024-01-25T02:06:35.234Z,6.00
2024-01-25T02:09:02.729Z,6.03
2024-01-25T02:11:30.220Z,5.82
2024-01-25T02:13:57.780Z,7.13
2024-01-25T02:16:25.330Z,6.55
2024-01-25T02:18:55.278Z,6.22
2024-01-25T02:21:22.583Z,6.15
2024-01-25T02:23:51.415Z,6.72
2024-01-25T02:26:18.437Z,6.45
2024-01-25T02:28:45.465Z,6.05
2024-01-25T02:31:12.766Z,6.63
2024-01-25T02:33:39.867Z,7.95
2024-01-25T02:36:07.399Z,6.80
2024-01-25T02:38:34.374Z,6.30
2024-01-25T02:41:01.417Z,6.90
2024-01-25T02:43:31.385Z,7.47
2024-01-25T02:45:58.567Z,8.35
2024-01-25T02:48:25.605Z,6.45
2024-01-25T02:50:52.567Z,5.30
2024-01-25T02:53:19.545Z,6.78
2024-01-25T02:55:46.548Z,6.50
2024-01-25T02:58:13.775Z,6.00
2024-01-25T03:00:40.895Z,6.57
2024-01-25T03:03:08.037Z,6.32
2024-01-25T03:05:35.920Z,5.45
2024-01-25T03:08:03.071Z,5.50
2024-01-25T03:10:30.503Z,6.43
2024-01-25T03:12:57.622Z,5.70
2024-01-25T03:15:24.648Z,6.32
2024-01-25T03:17:52.227Z,7.75
2024-01-25T03:20:19.501Z,8.27
2024-01-25T03:22:46.591Z,7.22
2024-01-25T03:25:13.774Z,7.25
2024-01-25T03:27:40.852Z,8.05
2024-01-25T03:30:08.709Z,5.72
2024-01-25T03:32:35.897Z,5.90
2024-01-25T03:35:03.406Z,6.32
2024-01-25T03:37:30.579Z,5.85
2024-01-25T03:39:57.737Z,4.80
2024-01-25T03:42:24.854Z,5.65
2024-01-25T03:44:53.263Z,6.00
2024-01-25T03:47:20.261Z,5.78
2024-01-25T03:49:47.638Z,7.43
2024-01-25T03:52:17.921Z,6.65
2024-01-25T03:57:12.051Z,6.60
2024-01-25T03:59:41.352Z,5.45
2024-01-25T04:02:08.500Z,5.47
2024-01-25T04:04:35.568Z,6.07
2024-01-25T04:07:02.695Z,6.45
2024-01-25T04:09:29.783Z,7.15
2024-01-25T04:11:57.471Z,8.80
2024-01-25T04:14:24.696Z,8.18
2024-01-25T04:16:52.124Z,6.38
2024-01-25T04:19:19.531Z,6.03
2024-01-25T04:21:46.663Z,5.80
2024-01-25T04:24:19.616Z,6.57
2024-01-25T04:26:46.797Z,6.28
2024-01-25T04:29:13.844Z,7.28
2024-01-25T04:31:46.131Z,5.40
2024-01-25T04:34:20.064Z,5.72
2024-01-25T04:36:47.164Z,6.03
2024-01-25T04:39:14.263Z,6.18
2024-01-25T04:41:41.282Z,7.68
2024-01-25T04:44:08.375Z,7.95
2024-01-25T04:46:37.827Z,10.02
2024-01-25T04:49:05.233Z,10.70
2024-01-25T04:51:32.599Z,11.00
2024-01-25T04:53:59.625Z,10.05
2024-01-25T04:56:26.715Z,9.98
2024-01-25T04:58:53.794Z,9.60
2024-01-25T05:01:21.090Z,8.25
2024-01-25T05:03:48.393Z,7.82
2024-01-25T05:06:15.485Z,6.60
2024-01-25T05:08:44.442Z,7.75
2024-01-25T05:11:11.963Z,6.90
2024-01-25T05:13:39.023Z,6.90
2024-01-25T05:16:06.291Z,8.27
2024-01-25T05:18:33.570Z,6.60
2024-01-25T05:21:00.782Z,6.47
2024-01-25T05:23:27.848Z,6.90
2024-01-25T05:25:54.946Z,7.28
2024-01-25T05:28:22.180Z,8.23
2024-01-25T05:30:50.124Z,12.07
2024-01-25T05:33:22.437Z,9.75
2024-01-25T05:35:49.517Z,7.57
2024-01-25T05:38:17.459Z,8.30
2024-01-25T05:40:44.580Z,7.70
2024-01-25T05:43:11.998Z,9.40
2024-01-25T05:45:39.116Z,7.38
2024-01-25T05:48:06.819Z,8.70
2024-01-25T05:50:34.418Z,8.93
2024-01-25T05:53:01.441Z,10.05
2024-01-25T05:55:28.599Z,8.57
2024-01-25T05:57:56.224Z,8.93
2024-01-25T06:00:23.628Z,7.32
2024-01-25T06:02:50.710Z,7.15
2024-01-25T06:05:18.200Z,7.00
2024-01-25T06:07:45.579Z,6.55
2024-01-25T06:10:12.811Z,7.93
2024-01-25T06:12:39.980Z,6.00
2024-01-25T06:15:08.345Z,6.38
2024-01-25T06:17:35.415Z,7.90
2024-01-25T06:20:03.945Z,8.10
2024-01-25T06:22:31.141Z,8.10
2024-01-25T06:24:58.209Z,8.43
2024-01-25T06:27:25.141Z,6.55
2024-01-25T06:29:57.924Z,8.23
2024-01-25T06:32:27.046Z,7.78
2024-01-25T06:34:55.026Z,10.23
2024-01-25T06:37:22.383Z,11.80
2024-01-25T06:39:49.466Z,10.90
2024-01-25T06:42:16.960Z,10.20
2024-01-25T06:44:44.332Z,11.93
2024-01-25T06:47:11.546Z,14.02
2024-01-25T06:49:38.718Z,16.45
2024-01-25T06:52:06.526Z,13.63
2024-01-25T06:54:36.187Z,12.23
2024-01-25T06:57:04.155Z,9.43
2024-01-25T06:59:33.797Z,10.15
2024-01-25T07:02:02.816Z,8.45
2024-01-25T07:04:30.845Z,6.57
2024-01-25T07:06:58.406Z,9.63
2024-01-25T07:09:25.457Z,6.38
2024-01-25T07:11:52.678Z,6.20
2024-01-25T07:14:19.605Z,7.13
2024-01-25T07:16:46.614Z,6.65
2024-01-25T07:19:16.577Z,8.02
2024-01-25T07:21:46.702Z,6.90
2024-01-25T07:26:40.805Z,7.63
2024-01-25T07:29:07.738Z,8.70
2024-01-25T07:31:34.721Z,8.68
2024-01-25T07:34:01.854Z,11.30
2024-01-25T07:36:28.945Z,11.80
2024-01-25T07:38:55.998Z,12.57
2024-01-25T07:41:23.581Z,11.48
2024-01-25T07:43:50.525Z,15.23
2024-01-25T07:46:18.606Z,11.02
2024-01-25T07:48:45.765Z,9.77
2024-01-25T07:51:14.699Z,12.65
2024-01-25T07:53:41.890Z,13.55
2024-01-25T07:56:09.867Z,10.82
2024-01-25T07:58:37.682Z,10.52
2024-01-25T08:01:08.485Z,7.95
2024-01-25T08:03:35.782Z,9.85
2024-01-25T08:06:07.255Z,9.95
2024-01-25T08:08:37.102Z,12.10
2024-01-25T08:11:05.491Z,11.23
2024-01-25T08:13:35.633Z,7.93
2024-01-25T08:16:03.311Z,7.88
2024-01-25T08:18:31.493Z,7.82
2024-01-25T08:20:59.059Z,8.65
2024-01-25T08:23:26.107Z,7.70
2024-01-25T08:25:53.146Z,9.68
2024-01-25T08:28:21.047Z,10.02
2024-01-25T08:30:48.559Z,9.10
2024-01-25T08:33:15.996Z,10.55
2024-01-25T08:35:43.446Z,7.50
2024-01-25T08:38:10.509Z,7.38
2024-01-25T08:40:37.607Z,8.23
2024-01-25T08:43:05.942Z,7.93
2024-01-25T08:45:33.423Z,7.63
2024-01-25T08:48:01.341Z,7.20
2024-01-25T08:50:28.843Z,6.80
2024-01-25T08:52:56.481Z,6.60
2024-01-25T08:55:23.732Z,7.43
2024-01-25T08:57:51.356Z,7.63
2024-01-25T09:00:19.424Z,7.38
2024-01-25T09:02:46.920Z,7.53
2024-01-25T09:05:14.118Z,7.53
2024-01-25T09:07:41.385Z,8.98
2024-01-25T09:10:09.279Z,7.57
2024-01-25T09:12:38.836Z,7.07
2024-01-25T09:15:06.543Z,8.45
2024-01-25T09:17:33.755Z,8.43
2024-01-25T09:20:01.671Z,7.70
2024-01-25T09:22:29.036Z,9.68
2024-01-25T09:24:56.174Z,9.77
2024-01-25T09:27:23.205Z,8.80
2024-01-25T09:29:50.461Z,7.63
2024-01-25T09:32:18.316Z,8.65
2024-01-25T09:34:45.547Z,8.35
2024-01-25T09:37:12.838Z,7.97
2024-01-25T09:39:40.152Z,7.60
2024-01-25T09:42:08.480Z,7.85
2024-01-25T09:44:35.704Z,9.52
2024-01-25T09:47:06.752Z,8.88
2024-01-25T09:49:34.467Z,7.55
2024-01-25T09:52:07.012Z,7.43
2024-01-25T09:54:39.880Z,7.22
2024-01-25T09:57:24.550Z,7.32
2024-01-25T10:00:01.881Z,8.50
2024-01-25T10:02:32.052Z,7.20
2024-01-25T10:05:05.855Z,7.30
2024-01-25T10:07:44.567Z,7.32
2024-01-25T10:10:13.794Z,7.07
2024-01-25T10:12:46.073Z,6.30
2024-01-25T10:15:13.186Z,6.00
2024-01-25T10:17:58.640Z,7.20
2024-01-25T10:20:29.832Z,6.18
2024-01-25T10:23:00.499Z,7.05
2024-01-25T10:25:28.977Z,5.70
2024-01-25T10:27:56.521Z,6.20
2024-01-25T10:30:28.488Z,5.32
2024-01-25T10:32:56.755Z,6.10
2024-01-25T10:35:25.707Z,6.63
2024-01-25T10:37:56.792Z,6.80
2024-01-25T10:40:24.522Z,6.95
2024-01-25T10:42:52.690Z,6.05
2024-01-25T10:45:20.303Z,7.22
2024-01-25T10:47:50.394Z,7.00
2024-01-25T10:52:46.072Z,5.60
2024-01-25T10:55:14.489Z,6.50
2024-01-25T10:57:46.406Z,5.80
2024-01-25T11:00:16.453Z,6.38
2024-01-25T11:02:45.568Z,6.22
2024-01-25T11:05:18.908Z,6.22
2024-01-25T11:07:51.669Z,7.88
2024-01-25T11:10:25.228Z,6.00
2024-01-25T11:13:00.703Z,5.80
2024-01-25T11:15:36.411Z,6.55
2024-01-25T11:18:08.416Z,5.82
2024-01-25T11:20:37.883Z,6.18
2024-01-25T11:23:10.375Z,7.35
2024-01-25T11:25:40.239Z,7.35
2024-01-25T11:28:11.730Z,5.88
2024-01-25T11:30:39.213Z,6.07
2024-01-25T11:33:08.635Z,6.80
2024-01-25T11:35:36.448Z,7.03
2024-01-25T11:38:03.774Z,8.27
2024-01-25T11:40:34.311Z,7.63
2024-01-25T11:43:04.178Z,8.40
2024-01-25T11:45:31.330Z,6.93
2024-01-25T11:47:58.560Z,5.60
2024-01-25T11:50:26.025Z,7.95
2024-01-25T11:52:53.153Z,6.03
2024-01-25T11:55:20.315Z,5.95
2024-01-25T11:57:50.899Z,7.32
2024-01-25T12:00:19.188Z,6.13
2024-01-25T12:02:46.212Z,7.85
2024-01-25T12:05:14.923Z,8.98
2024-01-25T12:07:42.316Z,5.78
2024-01-25T12:10:18.057Z,6.13
2024-01-25T12:12:45.445Z,8.25
2024-01-25T12:15:12.738Z,7.95
2024-01-25T12:17:41.776Z,9.07
2024-01-25T12:20:12.998Z,7.18
2024-01-25T12:22:40.514Z,6.43
2024-01-25T12:25:11.766Z,5.50
2024-01-25T12:27:46.847Z,6.05
2024-01-25T12:30:14.299Z,7.20
2024-01-25T12:32:41.506Z,5.25
2024-01-25T12:35:10.017Z,5.93
2024-01-25T12:37:37.448Z,5.28
2024-01-25T12:40:05.483Z,4.70
2024-01-25T12:42:32.970Z,4.32
2024-01-25T12:45:00.097Z,4.65
2024-01-25T12:47:28.161Z,5.22
2024-01-25T12:49:55.350Z,6.55
2024-01-25T12:52:22.746Z,6.15
2024-01-25T12:54:49.891Z,4.70
2024-01-25T12:57:17.067Z,5.97
2024-01-25T12:59:44.319Z,4.68
2024-01-25T13:02:13.385Z,6.95
2024-01-25T13:04:40.587Z,5.32
2024-01-25T13:07:07.655Z,5.43
2024-01-25T13:09:41.539Z,5.90
2024-01-25T13:12:08.807Z,5.68
2024-01-25T13:14:35.899Z,4.30
2024-01-25T13:17:03.034Z,5.70
2024-01-25T13:19:30.248Z,5.35
2024-01-25T13:21:57.366Z,5.38
2024-01-25T13:24:24.520Z,5.70
2024-01-25T13:26:51.763Z,5.13
2024-01-25T13:29:19.369Z,4.88
2024-01-25T13:31:46.789Z,4.90
2024-01-25T13:34:14.357Z,4.57
2024-01-25T13:36:42.595Z,4.90
2024-01-25T13:39:11.242Z,4.88
2024-01-25T13:41:38.279Z,5.32
2024-01-25T13:44:05.246Z,4.82
2024-01-25T13:46:34.793Z,4.68
2024-01-25T13:49:05.162Z,5.13
2024-01-25T13:51:32.447Z,4.88
2024-01-25T13:53:59.472Z,5.75
2024-01-25T13:56:26.647Z,5.38
2024-01-25T13:58:53.792Z,4.75
2024-01-25T14:01:21.622Z,5.18
2024-01-25T14:03:49.104Z,4.20
2024-01-25T14:06:16.454Z,4.40
2024-01-25T14:08:43.734Z,4.43
2024-01-25T14:11:11.523Z,4.32
2024-01-25T14:13:38.753Z,4.53
2024-01-25T14:16:06.132Z,3.78
2024-01-25T14:18:38.888Z,5.15
2024-01-25T14:21:06.294Z,3.90
2024-01-25T14:23:36.359Z,5.05
2024-01-25T14:26:04.140Z,4.30
2024-01-25T14:28:31.572Z,5.65
2024-01-25T14:30:58.785Z,4.88
2024-01-25T14:33:26.237Z,4.90
2024-01-25T14:35:53.365Z,4.97
2024-01-25T14:38:20.465Z,4.30
2024-01-25T14:40:56.755Z,4.60
2024-01-25T14:43:26.676Z,4.72
2024-01-25T14:45:56.860Z,5.38
2024-01-25T14:50:51.339Z,5.55
2024-01-25T14:53:19.615Z,4.85
2024-01-25T14:55:46.797Z,4.75
2024-01-25T14:58:17.350Z,4.32
2024-01-25T15:00:45.796Z,4.57
2024-01-25T15:03:13.210Z,5.80
2024-01-25T15:05:40.303Z,4.85
2024-01-25T15:08:07.376Z,5.88
2024-01-25T15:10:34.639Z,5.25
2024-01-25T15:13:01.854Z,4.00
2024-01-25T15:15:29.484Z,5.43
2024-01-25T15:17:56.764Z,5.40
2024-01-25T15:20:23.994Z,4.50
2024-01-25T15:22:52.492Z,4.60
2024-01-25T15:25:19.868Z,5.20
2024-01-25T15:27:47.033Z,5.22
2024-01-25T15:30:14.302Z,5.28
2024-01-25T15:32:42.683Z,4.00
2024-01-25T15:35:10.360Z,5.53
2024-01-25T15:37:38.578Z,5.03
2024-01-25T15:40:11.908Z,4.57
2024-01-25T15:42:43.754Z,4.20
2024-01-25T15:45:11.293Z,4.82
2024-01-25T15:47:38.690Z,4.20
2024-01-25T15:50:06.479Z,3.85
2024-01-25T15:52:34.828Z,3.95
2024-01-25T15:55:02.367Z,3.83
2024-01-25T15:57:32.481Z,4.07
2024-01-25T16:00:00.876Z,4.47
2024-01-25T16:02:30.974Z,4.25
2024-01-25T16:04:58.024Z,5.00
2024-01-25T16:07:25.190Z,4.22
2024-01-25T16:09:52.445Z,3.95
2024-01-25T16:12:20.230Z,4.60
2024-01-25T16:14:48.603Z,4.00
2024-01-25T16:17:18.816Z,4.22
2024-01-25T16:22:14.845Z,4.32
2024-01-25T16:24:42.218Z,4.30
2024-01-25T16:27:12.111Z,4.88
2024-01-25T16:29:39.476Z,4.28
2024-01-25T16:32:10.077Z,4.07
2024-01-25T16:34:37.611Z,4.43
2024-01-25T16:37:05.021Z,4.00
2024-01-25T16:39:32.034Z,3.88
2024-01-25T16:41:59.094Z,4.50
2024-01-25T16:44:26.141Z,5.68
2024-01-25T16:46:53.120Z,4.63
2024-01-25T16:49:20.323Z,4.85
2024-01-25T16:51:47.709Z,4.57
2024-01-25T16:54:16.539Z,4.65
2024-01-25T16:56:48.796Z,3.80
2024-01-25T16:59:19.424Z,4.07
2024-01-25T17:01:46.524Z,3.25
2024-01-25T17:04:14.154Z,3.67
2024-01-25T17:06:43.276Z,4.13
2024-01-25T17:09:11.044Z,4.13
2024-01-25T17:11:38.187Z,4.88
2024-01-25T17:14:09.264Z,4.15
2024-01-25T17:16:36.636Z,4.57
2024-01-25T17:19:04.785Z,4.30
2024-01-25T17:21:32.965Z,4.22
2024-01-25T17:24:00.355Z,4.43
2024-01-25T17:26:27.612Z,4.53
2024-01-25T17:28:57.730Z,3.80
2024-01-25T17:31:24.777Z,5.07
2024-01-25T17:33:52.301Z,5.22
2024-01-25T17:36:19.577Z,4.30
2024-01-25T17:38:46.659Z,4.30
2024-01-25T17:41:13.768Z,4.32
2024-01-25T17:43:46.456Z,5.90
2024-01-25T17:46:13.816Z,4.30
2024-01-25T17:48:41.141Z,5.20
2024-01-25T17:51:08.335Z,5.10
2024-01-25T17:53:36.657Z,5.45
2024-01-25T17:56:04.057Z,6.07
2024-01-25T17:58:31.043Z,7.18
2024-01-25T18:00:58.414Z,6.70
2024-01-25T18:03:25.575Z,5.70
2024-01-25T18:05:53.658Z,6.03
2024-01-25T18:08:20.960Z,5.88
2024-01-25T18:10:48.210Z,6.75
2024-01-25T18:13:18.253Z,5.72
2024-01-25T18:15:45.351Z,5.20
2024-01-25T18:18:12.594Z,11.23
2024-01-25T18:20:39.764Z,6.05
2024-01-25T18:23:07.018Z,6.53
2024-01-25T18:25:34.156Z,6.18
2024-01-25T18:28:04.257Z,4.82
2024-01-25T18:32:58.480Z,5.13
2024-01-25T18:35:25.705Z,5.63
2024-01-25T18:37:52.785Z,5.80
2024-01-25T18:40:22.586Z,7.63
2024-01-25T18:42:52.303Z,6.43
2024-01-25T18:45:20.354Z,8.23
2024-01-25T18:47:47.600Z,11.52
2024-01-25T18:50:14.951Z,7.95
2024-01-25T18:52:42.168Z,8.55
2024-01-25T18:55:10.939Z,8.13
2024-01-25T18:57:41.984Z,9.35
2024-01-25T19:00:13.072Z,7.75
2024-01-25T19:02:43.600Z,8.75
2024-01-25T19:05:11.633Z,7.32
2024-01-25T19:07:40.749Z,7.32
2024-01-25T19:10:08.594Z,7.18
2024-01-25T19:12:36.602Z,15.27
2024-01-25T19:15:05.832Z,10.32
2024-01-25T19:17:33.006Z,8.47
2024-01-25T19:20:00.777Z,8.57
2024-01-25T19:22:28.116Z,7.43
2024-01-25T19:24:55.288Z,8.63
2024-01-25T19:27:22.708Z,8.38
2024-01-25T19:29:49.983Z,9.30
2024-01-25T19:32:17.067Z,8.43
2024-01-25T19:34:44.362Z,7.80
2024-01-25T19:37:11.692Z,7.95
2024-01-25T19:39:39.195Z,7.85
2024-01-25T19:42:07.203Z,8.15
2024-01-25T19:44:35.526Z,10.63
2024-01-25T19:47:02.804Z,10.32
2024-01-25T19:49:30.522Z,11.00
2024-01-25T19:51:57.760Z,9.77
2024-01-25T19:54:30.108Z,10.43
2024-01-25T19:57:07.444Z,12.30
2024-01-25T19:59:54.441Z,12.00
2024-01-25T20:02:35.154Z,11.50
2024-01-25T20:08:13.411Z,12.88
2024-01-25T20:10:45.081Z,15.48
2024-01-25T20:13:12.306Z,12.77
2024-01-25T20:15:39.576Z,13.48
2024-01-25T20:18:07.080Z,14.10
2024-01-25T20:20:42.962Z,14.57
2024-01-25T20:23:15.715Z,19.30
2024-01-25T20:25:44.111Z,25.00
2024-01-25T20:28:11.435Z,17.50
2024-01-25T20:30:40.235Z,16.92
2024-01-25T20:33:07.795Z,19.35
2024-01-25T20:35:35.308Z,16.98
2024-01-25T20:38:16.691Z,17.05
2024-01-25T20:40:44.851Z,17.17
2024-01-25T20:43:12.056Z,13.30
2024-01-25T20:45:41.435Z,11.50
2024-01-25T20:48:09.346Z,13.02
2024-01-25T20:50:39.046Z,14.32
2024-01-25T20:55:38.636Z,12.25
2024-01-25T20:58:06.046Z,20.67
2024-01-25T21:00:33.331Z,22.27
2024-01-25T21:03:01.316Z,33.38
2024-01-25T21:05:29.151Z,22.00
2024-01-25T21:07:57.532Z,22.90
2024-01-25T21:10:25.309Z,28.90
2024-01-25T21:12:52.800Z,21.50
2024-01-25T21:15:20.804Z,15.02
2024-01-25T21:17:48.003Z,16.33
2024-01-25T21:20:15.174Z,15.02
2024-01-25T21:22:42.470Z,14.77
2024-01-25T21:25:11.964Z,14.70
2024-01-25T21:27:39.571Z,12.30
2024-01-25T21:30:07.632Z,12.35
2024-01-25T21:32:34.892Z,11.98
2024-01-25T21:35:02.303Z,12.50
2024-01-25T21:37:29.906Z,12.35
2024-01-25T21:39:58.085Z,12.32
2024-01-25T21:42:27.685Z,11.63
2024-01-25T21:44:54.919Z,13.82
2024-01-25T21:47:22.662Z,12.80
2024-01-25T21:49:50.319Z,12.65
2024-01-25T21:52:19.416Z,12.55
2024-01-25T21:54:49.298Z,12.25
2024-01-25T21:57:16.630Z,12.90
2024-01-25T21:59:43.930Z,13.38
2024-01-25T22:02:11.266Z,12.77
2024-01-25T22:04:40.447Z,12.60
2024-01-25T22:07:08.459Z,13.67
2024-01-25T22:09:35.770Z,14.23
2024-01-25T22:12:02.840Z,13.77
2024-01-25T22:14:32.889Z,13.93
2024-01-25T22:17:00.080Z,12.18
2024-01-25T22:19:27.198Z,14.20
2024-01-25T22:21:54.291Z,12.68
2024-01-25T22:24:21.311Z,13.98
2024-01-25T22:26:48.352Z,12.15
2024-01-25T22:29:15.706Z,12.60
2024-01-25T22:31:43.023Z,12.18
2024-01-25T22:34:10.317Z,13.18
2024-01-25T22:36:37.523Z,11.48
2024-01-25T22:39:05.001Z,16.40
2024-01-25T22:41:32.003Z,18.27
2024-01-25T22:43:59.053Z,16.10
2024-01-25T22:46:28.859Z,14.02
2024-01-25T22:48:56.955Z,14.68
2024-01-25T22:51:24.014Z,14.82
2024-01-25T22:53:51.585Z,17.00
2024-01-25T22:56:19.835Z,15.82
2024-01-25T22:58:46.984Z,16.95
2024-01-25T23:01:14.203Z,15.68
2024-01-25T23:03:43.463Z,15.63
2024-01-25T23:06:10.957Z,15.85
2024-01-25T23:08:38.630Z,17.65
2024-01-25T23:11:07.075Z,16.52
2024-01-25T23:13:35.434Z,16.55
2024-01-25T23:16:04.562Z,16.42
2024-01-25T23:18:31.849Z,16.92
2024-01-25T23:20:58.817Z,16.90
2024-01-25T23:23:26.076Z,16.80
2024-01-25T23:25:53.380Z,16.42
2024-01-25T23:28:20.376Z,17.92
2024-01-25T23:30:47.415Z,19.02
2024-01-25T23:33:16.554Z,16.77
2024-01-25T23:35:44.730Z,19.00
2024-01-25T23:38:11.698Z,18.27
2024-01-25T23:40:38.942Z,16.63
2024-01-25T23:43:06.448Z,17.88
2024-01-25T23:45:34.001Z,17.40
2024-01-25T23:48:01.192Z,17.33
2024-01-25T23:50:28.462Z,17.23
2024-01-25T23:52:55.653Z,19.38
2024-01-25T23:55:22.742Z,18.60
2024-01-25T23:57:52.849Z,18.48
